sensor_id;sensor_type;location;lat;lon;timestamp;P1;durP1;ratioP1;P2;durP2;ratioP2
14994;SDS011;7593;49.006;8.372;2023-01-28T00:01:08;3.63;;;2.73;;
14994;SDS011;7593;49.006;8.372;2023-01-28T00:03:38;4.37;;;3.20;;
14994;SDS011;7593;49.006;8.372;2023-01-28T00:06:14;3.40;;;2.90;;
14994;SDS011;7593;49.006;8.372;2023-01-28T00:08:45;3.20;;;2.80;;
14994;SDS011;7593;49.006;8.372;2023-01-28T00:11:12;3.23;;;2.80;;
14994;SDS011;7593;49.006;8.372;2023-01-28T00:13:39;3.07;;;2.77;;
14994;SDS011;7593;49.006;8.372;2023-01-28T00:16:07;3.60;;;2.90;;
14994;SDS011;7593;49.006;8.372;2023-01-28T00:18:38;3.00;;;2.70;;
14994;SDS011;7593;49.006;8.372;2023-01-28T00:21:05;3.47;;;3.03;;
14994;SDS011;7593;49.006;8.372;2023-01-28T00:23:34;3.27;;;2.80;;
14994;SDS011;7593;49.006;8.372;2023-01-28T00:26:02;4.07;;;2.40;;
14994;SDS011;7593;49.006;8.372;2023-01-28T00:28:34;3.03;;;2.70;;
14994;SDS011;7593;49.006;8.372;2023-01-28T00:31:04;2.67;;;2.43;;
14994;SDS011;7593;49.006;8.372;2023-01-28T00:33:33;3.43;;;2.77;;
14994;SDS011;7593;49.006;8.372;2023-01-28T00:36:01;3.20;;;2.70;;
14994;SDS011;7593;49.006;8.372;2023-01-28T00:38:30;3.10;;;2.70;;
14994;SDS011;7593;49.006;8.372;2023-01-28T00:41:05;2.77;;;2.27;;
14994;SDS011;7593;49.006;8.372;2023-01-28T00:43:33;2.47;;;2.27;;
14994;SDS011;7593;49.006;8.372;2023-01-28T00:46:00;3.00;;;2.70;;
14994;SDS011;7593;49.006;8.372;2023-01-28T00:48:27;2.60;;;2.40;;
14994;SDS011;7593;49.006;8.372;2023-01-28T00:50:53;4.37;;;2.50;;
14994;SDS011;7593;49.006;8.372;2023-01-28T00:53:22;2.73;;;2.43;;
14994;SDS011;7593;49.006;8.372;2023-01-28T00:55:49;2.70;;;2.50;;
14994;SDS011;7593;49.006;8.372;2023-01-28T00:58:16;3.00;;;2.60;;
14994;SDS011;7593;49.006;8.372;2023-01-28T01:00:43;2.87;;;2.50;;
14994;SDS011;7593;49.006;8.372;2023-01-28T01:03:10;3.47;;;2.83;;
14994;SDS011;7593;49.006;8.372;2023-01-28T01:05:37;3.37;;;2.50;;
14994;SDS011;7593;49.006;8.372;2023-01-28T01:08:04;2.57;;;2.20;;
14994;SDS011;7593;49.006;8.372;2023-01-28T01:10:32;3.70;;;2.67;;
14994;SDS011;7593;49.006;8.372;2023-01-28T01:13:02;11.47;;;3.07;;
14994;SDS011;7593;49.006;8.372;2023-01-28T01:15:30;3.73;;;2.93;;
14994;SDS011;7593;49.006;8.372;2023-01-28T01:17:57;3.03;;;2.60;;
14994;SDS011;7593;49.006;8.372;2023-01-28T01:20:25;2.97;;;2.50;;
14994;SDS011;7593;49.006;8.372;2023-01-28T01:22:53;3.97;;;2.70;;
14994;SDS011;7593;49.006;8.372;2023-01-28T01:25:19;3.30;;;2.63;;
14994;SDS011;7593;49.006;8.372;2023-01-28T01:27:48;3.40;;;2.63;;
14994;SDS011;7593;49.006;8.372;2023-01-28T01:30:15;3.27;;;2.80;;
14994;SDS011;7593;49.006;8.372;2023-01-28T01:32:42;4.10;;;2.90;;
14994;SDS011;7593;49.006;8.372;2023-01-28T01:35:09;2.73;;;2.43;;
14994;SDS011;7593;49.006;8.372;2023-01-28T01:37:36;3.50;;;2.90;;
14994;SDS011;7593;49.006;8.372;2023-01-28T01:40:03;3.27;;;2.80;;
14994;SDS011;7593;49.006;8.372;2023-01-28T01:42:32;3.63;;;3.00;;
14994;SDS011;7593;49.006;8.372;2023-01-28T01:45:01;3.50;;;3.10;;
14994;SDS011;7593;49.006;8.372;2023-01-28T01:47:33;4.53;;;3.20;;
14994;SDS011;7593;49.006;8.372;2023-01-28T01:50:08;3.73;;;3.30;;
14994;SDS011;7593;49.006;8.372;2023-01-28T01:52:41;3.60;;;3.20;;
14994;SDS011;7593;49.006;8.372;2023-01-28T01:55:10;4.80;;;3.53;;
14994;SDS011;7593;49.006;8.372;2023-01-28T01:57:39;4.43;;;3.10;;
14994;SDS011;7593;49.006;8.372;2023-01-28T02:00:09;3.20;;;2.90;;
14994;SDS011;7593;49.006;8.372;2023-01-28T02:02:38;3.10;;;2.80;;
14994;SDS011;7593;49.006;8.372;2023-01-28T02:05:07;3.70;;;3.10;;
14994;SDS011;7593;49.006;8.372;2023-01-28T02:07:35;3.70;;;3.13;;
14994;SDS011;7593;49.006;8.372;2023-01-28T02:10:03;3.67;;;2.97;;
14994;SDS011;7593;49.006;8.372;2023-01-28T02:12:33;3.33;;;2.93;;
14994;SDS011;7593;49.006;8.372;2023-01-28T02:15:02;3.50;;;2.93;;
14994;SDS011;7593;49.006;8.372;2023-01-28T02:17:32;3.80;;;3.27;;
14994;SDS011;7593;49.006;8.372;2023-01-28T02:20:01;4.17;;;3.33;;
14994;SDS011;7593;49.006;8.372;2023-01-28T02:22:39;4.50;;;3.60;;
14994;SDS011;7593;49.006;8.372;2023-01-28T02:25:37;4.50;;;3.20;;
14994;SDS011;7593;49.006;8.372;2023-01-28T02:28:19;4.83;;;3.53;;
14994;SDS011;7593;49.006;8.372;2023-01-28T02:30:53;3.80;;;3.40;;
14994;SDS011;7593;49.006;8.372;2023-01-28T02:33:27;4.00;;;3.40;;
14994;SDS011;7593;49.006;8.372;2023-01-28T02:35:57;6.27;;;3.47;;
14994;SDS011;7593;49.006;8.372;2023-01-28T02:38:32;4.27;;;3.50;;
14994;SDS011;7593;49.006;8.372;2023-01-28T02:41:07;3.93;;;3.50;;
14994;SDS011;7593;49.006;8.372;2023-01-28T02:43:40;4.00;;;3.10;;
14994;SDS011;7593;49.006;8.372;2023-01-28T02:46:11;3.70;;;3.40;;
14994;SDS011;7593;49.006;8.372;2023-01-28T02:49:03;3.70;;;3.07;;
14994;SDS011;7593;49.006;8.372;2023-01-28T02:51:37;3.53;;;3.07;;
14994;SDS011;7593;49.006;8.372;2023-01-28T02:54:11;3.90;;;3.40;;
14994;SDS011;7593;49.006;8.372;2023-01-28T02:56:41;4.00;;;3.27;;
14994;SDS011;7593;49.006;8.372;2023-01-28T02:59:19;3.30;;;2.90;;
14994;SDS011;7593;49.006;8.372;2023-01-28T03:01:59;4.33;;;3.07;;
14994;SDS011;7593;49.006;8.372;2023-01-28T03:04:32;3.20;;;2.90;;
14994;SDS011;7593;49.006;8.372;2023-01-28T03:07:04;3.43;;;2.90;;
14994;SDS011;7593;49.006;8.372;2023-01-28T03:09:36;3.80;;;2.93;;
14994;SDS011;7593;49.006;8.372;2023-01-28T03:12:05;3.50;;;3.20;;
14994;SDS011;7593;49.006;8.372;2023-01-28T03:14:55;3.63;;;3.10;;
14994;SDS011;7593;49.006;8.372;2023-01-28T03:17:42;2.87;;;2.63;;
14994;SDS011;7593;49.006;8.372;2023-01-28T03:20:31;3.83;;;3.30;;
14994;SDS011;7593;49.006;8.372;2023-01-28T03:23:21;3.60;;;3.13;;
14994;SDS011;7593;49.006;8.372;2023-01-28T03:26:12;3.40;;;3.10;;
14994;SDS011;7593;49.006;8.372;2023-01-28T03:29:00;3.40;;;3.10;;
14994;SDS011;7593;49.006;8.372;2023-01-28T03:31:50;3.87;;;3.40;;
14994;SDS011;7593;49.006;8.372;2023-01-28T03:34:36;3.93;;;3.33;;
14994;SDS011;7593;49.006;8.372;2023-01-28T03:37:21;3.30;;;3.00;;
14994;SDS011;7593;49.006;8.372;2023-01-28T03:39:48;3.80;;;3.40;;
14994;SDS011;7593;49.006;8.372;2023-01-28T03:42:15;4.17;;;3.50;;
14994;SDS011;7593;49.006;8.372;2023-01-28T03:44:42;3.77;;;3.33;;
14994;SDS011;7593;49.006;8.372;2023-01-28T03:47:21;4.70;;;3.10;;
14994;SDS011;7593;49.006;8.372;2023-01-28T03:49:50;3.87;;;3.37;;
14994;SDS011;7593;49.006;8.372;2023-01-28T03:52:18;3.80;;;3.40;;
14994;SDS011;7593;49.006;8.372;2023-01-28T03:54:46;3.60;;;3.27;;
14994;SDS011;7593;49.006;8.372;2023-01-28T03:57:14;4.10;;;3.70;;
14994;SDS011;7593;49.006;8.372;2023-01-28T03:59:41;4.20;;;3.80;;
14994;SDS011;7593;49.006;8.372;2023-01-28T04:02:08;3.70;;;3.40;;
14994;SDS011;7593;49.006;8.372;2023-01-28T04:04:37;4.03;;;3.63;;
14994;SDS011;7593;49.006;8.372;2023-01-28T04:07:05;3.93;;;3.53;;
14994;SDS011;7593;49.006;8.372;2023-01-28T04:09:34;4.47;;;4.07;;
14994;SDS011;7593;49.006;8.372;2023-01-28T04:12:01;4.90;;;3.80;;
14994;SDS011;7593;49.006;8.372;2023-01-28T04:14:28;5.00;;;3.60;;
14994;SDS011;7593;49.006;8.372;2023-01-28T04:16:55;4.10;;;3.70;;
14994;SDS011;7593;49.006;8.372;2023-01-28T04:19:22;4.03;;;3.63;;
14994;SDS011;7593;49.006;8.372;2023-01-28T04:21:51;4.00;;;3.60;;
14994;SDS011;7593;49.006;8.372;2023-01-28T04:24:19;4.37;;;3.97;;
14994;SDS011;7593;49.006;8.372;2023-01-28T04:26:46;4.10;;;3.70;;
14994;SDS011;7593;49.006;8.372;2023-01-28T04:29:13;4.17;;;3.70;;
14994;SDS011;7593;49.006;8.372;2023-01-28T04:31:40;4.43;;;4.03;;
14994;SDS011;7593;49.006;8.372;2023-01-28T04:34:07;4.20;;;3.80;;
14994;SDS011;7593;49.006;8.372;2023-01-28T04:36:34;5.37;;;4.30;;
14994;SDS011;7593;49.006;8.372;2023-01-28T04:39:02;4.57;;;4.17;;
14994;SDS011;7593;49.006;8.372;2023-01-28T04:41:29;5.60;;;4.47;;
14994;SDS011;7593;49.006;8.372;2023-01-28T04:43:56;4.53;;;4.13;;
14994;SDS011;7593;49.006;8.372;2023-01-28T04:46:23;4.20;;;3.80;;
14994;SDS011;7593;49.006;8.372;2023-01-28T04:48:50;4.90;;;4.20;;
14994;SDS011;7593;49.006;8.372;2023-01-28T04:51:16;5.50;;;4.87;;
14994;SDS011;7593;49.006;8.372;2023-01-28T04:53:43;4.67;;;4.27;;
14994;SDS011;7593;49.006;8.372;2023-01-28T04:56:12;5.00;;;4.50;;
14994;SDS011;7593;49.006;8.372;2023-01-28T04:58:38;5.07;;;4.50;;
14994;SDS011;7593;49.006;8.372;2023-01-28T05:01:05;4.77;;;4.23;;
14994;SDS011;7593;49.006;8.372;2023-01-28T05:03:32;4.33;;;3.93;;
14994;SDS011;7593;49.006;8.372;2023-01-28T05:06:00;4.73;;;4.30;;
14994;SDS011;7593;49.006;8.372;2023-01-28T05:08:26;4.40;;;4.00;;
14994;SDS011;7593;49.006;8.372;2023-01-28T05:10:53;4.80;;;4.23;;
14994;SDS011;7593;49.006;8.372;2023-01-28T05:13:21;4.47;;;4.07;;
14994;SDS011;7593;49.006;8.372;2023-01-28T05:15:51;4.27;;;3.87;;
14994;SDS011;7593;49.006;8.372;2023-01-28T05:18:18;6.33;;;4.37;;
14994;SDS011;7593;49.006;8.372;2023-01-28T05:20:46;5.30;;;4.70;;
14994;SDS011;7593;49.006;8.372;2023-01-28T05:23:13;4.57;;;4.17;;
14994;SDS011;7593;49.006;8.372;2023-01-28T05:25:39;4.70;;;4.30;;
14994;SDS011;7593;49.006;8.372;2023-01-28T05:28:07;5.00;;;4.60;;
14994;SDS011;7593;49.006;8.372;2023-01-28T05:30:36;4.77;;;4.37;;
14994;SDS011;7593;49.006;8.372;2023-01-28T05:33:03;4.80;;;4.30;;
14994;SDS011;7593;49.006;8.372;2023-01-28T05:35:30;4.90;;;4.43;;
14994;SDS011;7593;49.006;8.372;2023-01-28T05:37:56;5.17;;;4.50;;
14994;SDS011;7593;49.006;8.372;2023-01-28T05:40:23;5.00;;;4.57;;
14994;SDS011;7593;49.006;8.372;2023-01-28T05:42:50;5.13;;;4.63;;
14994;SDS011;7593;49.006;8.372;2023-01-28T05:45:17;5.00;;;4.50;;
14994;SDS011;7593;49.006;8.372;2023-01-28T05:47:45;4.73;;;4.30;;
14994;SDS011;7593;49.006;8.372;2023-01-28T05:50:12;6.03;;;5.00;;
14994;SDS011;7593;49.006;8.372;2023-01-28T05:52:40;5.97;;;4.53;;
14994;SDS011;7593;49.006;8.372;2023-01-28T05:55:07;5.07;;;4.63;;
14994;SDS011;7593;49.006;8.372;2023-01-28T05:57:35;5.80;;;4.57;;
14994;SDS011;7593;49.006;8.372;2023-01-28T06:00:02;4.73;;;4.33;;
14994;SDS011;7593;49.006;8.372;2023-01-28T06:02:30;4.40;;;4.00;;
14994;SDS011;7593;49.006;8.372;2023-01-28T06:04:58;9.60;;;5.57;;
14994;SDS011;7593;49.006;8.372;2023-01-28T06:07:25;5.00;;;4.50;;
14994;SDS011;7593;49.006;8.372;2023-01-28T06:09:52;4.47;;;4.07;;
14994;SDS011;7593;49.006;8.372;2023-01-28T06:12:19;5.30;;;4.10;;
14994;SDS011;7593;49.006;8.372;2023-01-28T06:14:46;5.33;;;4.70;;
14994;SDS011;7593;49.006;8.372;2023-01-28T06:17:13;4.77;;;4.23;;
14994;SDS011;7593;49.006;8.372;2023-01-28T06:19:40;4.87;;;4.07;;
14994;SDS011;7593;49.006;8.372;2023-01-28T06:22:09;4.90;;;4.30;;
14994;SDS011;7593;49.006;8.372;2023-01-28T06:24:36;4.60;;;4.20;;
14994;SDS011;7593;49.006;8.372;2023-01-28T06:27:03;4.93;;;4.43;;
14994;SDS011;7593;49.006;8.372;2023-01-28T06:29:30;5.60;;;4.60;;
14994;SDS011;7593;49.006;8.372;2023-01-28T06:31:57;4.53;;;4.13;;
14994;SDS011;7593;49.006;8.372;2023-01-28T06:34:24;5.40;;;4.83;;
14994;SDS011;7593;49.006;8.372;2023-01-28T06:36:51;4.60;;;4.07;;
14994;SDS011;7593;49.006;8.372;2023-01-28T06:39:19;5.07;;;4.47;;
14994;SDS011;7593;49.006;8.372;2023-01-28T06:41:46;5.77;;;4.23;;
14994;SDS011;7593;49.006;8.372;2023-01-28T06:44:13;4.93;;;4.43;;
14994;SDS011;7593;49.006;8.372;2023-01-28T06:46:40;4.63;;;4.10;;
14994;SDS011;7593;49.006;8.372;2023-01-28T06:49:07;4.63;;;4.20;;
14994;SDS011;7593;49.006;8.372;2023-01-28T06:51:34;4.37;;;3.93;;
14994;SDS011;7593;49.006;8.372;2023-01-28T06:54:01;5.93;;;4.07;;
14994;SDS011;7593;49.006;8.372;2023-01-28T06:56:29;4.40;;;4.00;;
14994;SDS011;7593;49.006;8.372;2023-01-28T06:58:56;4.30;;;3.87;;
14994;SDS011;7593;49.006;8.372;2023-01-28T07:01:24;4.87;;;4.37;;
14994;SDS011;7593;49.006;8.372;2023-01-28T07:03:51;6.57;;;4.07;;
14994;SDS011;7593;49.006;8.372;2023-01-28T07:06:17;4.83;;;4.40;;
14994;SDS011;7593;49.006;8.372;2023-01-28T07:08:44;5.20;;;4.40;;
14994;SDS011;7593;49.006;8.372;2023-01-28T07:11:11;7.73;;;4.80;;
14994;SDS011;7593;49.006;8.372;2023-01-28T07:13:39;4.77;;;4.20;;
14994;SDS011;7593;49.006;8.372;2023-01-28T07:16:06;5.50;;;4.30;;
14994;SDS011;7593;49.006;8.372;2023-01-28T07:18:33;6.07;;;4.87;;
14994;SDS011;7593;49.006;8.372;2023-01-28T07:21:00;6.33;;;4.17;;
14994;SDS011;7593;49.006;8.372;2023-01-28T07:23:27;4.23;;;3.80;;
14994;SDS011;7593;49.006;8.372;2023-01-28T07:25:53;6.83;;;3.97;;
14994;SDS011;7593;49.006;8.372;2023-01-28T07:28:20;4.80;;;4.20;;
14994;SDS011;7593;49.006;8.372;2023-01-28T07:30:49;7.17;;;4.33;;
14994;SDS011;7593;49.006;8.372;2023-01-28T07:33:16;5.27;;;4.27;;
14994;SDS011;7593;49.006;8.372;2023-01-28T07:35:43;4.80;;;4.30;;
14994;SDS011;7593;49.006;8.372;2023-01-28T07:38:10;4.90;;;4.00;;
14994;SDS011;7593;49.006;8.372;2023-01-28T07:40:37;4.87;;;4.20;;
14994;SDS011;7593;49.006;8.372;2023-01-28T07:43:06;5.10;;;4.50;;
14994;SDS011;7593;49.006;8.372;2023-01-28T07:45:33;5.77;;;3.80;;
14994;SDS011;7593;49.006;8.372;2023-01-28T07:48:03;4.07;;;3.67;;
14994;SDS011;7593;49.006;8.372;2023-01-28T07:50:32;4.37;;;3.97;;
14994;SDS011;7593;49.006;8.372;2023-01-28T07:53:01;5.67;;;4.40;;
14994;SDS011;7593;49.006;8.372;2023-01-28T07:55:28;5.13;;;4.53;;
14994;SDS011;7593;49.006;8.372;2023-01-28T07:57:56;5.10;;;4.60;;
14994;SDS011;7593;49.006;8.372;2023-01-28T08:00:25;4.37;;;3.97;;
14994;SDS011;7593;49.006;8.372;2023-01-28T08:02:54;4.87;;;4.00;;
14994;SDS011;7593;49.006;8.372;2023-01-28T08:05:23;5.00;;;4.50;;
14994;SDS011;7593;49.006;8.372;2023-01-28T08:07:51;4.57;;;4.03;;
14994;SDS011;7593;49.006;8.372;2023-01-28T08:10:18;5.90;;;4.93;;
14994;SDS011;7593;49.006;8.372;2023-01-28T08:12:52;6.80;;;4.90;;
14994;SDS011;7593;49.006;8.372;2023-01-28T08:15:19;4.43;;;4.03;;
14994;SDS011;7593;49.006;8.372;2023-01-28T08:17:46;4.77;;;4.30;;
14994;SDS011;7593;49.006;8.372;2023-01-28T08:20:13;4.83;;;4.13;;
14994;SDS011;7593;49.006;8.372;2023-01-28T08:22:41;4.90;;;4.10;;
14994;SDS011;7593;49.006;8.372;2023-01-28T08:25:08;5.87;;;4.20;;
14994;SDS011;7593;49.006;8.372;2023-01-28T08:27:35;4.97;;;4.50;;
14994;SDS011;7593;49.006;8.372;2023-01-28T08:30:02;5.50;;;4.80;;
14994;SDS011;7593;49.006;8.372;2023-01-28T08:32:30;5.47;;;4.83;;
14994;SDS011;7593;49.006;8.372;2023-01-28T08:34:58;6.57;;;4.93;;
14994;SDS011;7593;49.006;8.372;2023-01-28T08:37:25;5.50;;;4.73;;
14994;SDS011;7593;49.006;8.372;2023-01-28T08:39:53;5.97;;;4.93;;
14994;SDS011;7593;49.006;8.372;2023-01-28T08:42:21;7.27;;;5.13;;
14994;SDS011;7593;49.006;8.372;2023-01-28T08:44:48;8.13;;;5.20;;
14994;SDS011;7593;49.006;8.372;2023-01-28T08:47:14;5.27;;;4.70;;
14994;SDS011;7593;49.006;8.372;2023-01-28T08:49:41;10.60;;;5.40;;
14994;SDS011;7593;49.006;8.372;2023-01-28T08:52:08;5.40;;;4.77;;
14994;SDS011;7593;49.006;8.372;2023-01-28T08:54:35;6.17;;;5.13;;
14994;SDS011;7593;49.006;8.372;2023-01-28T08:57:03;5.30;;;4.80;;
14994;SDS011;7593;49.006;8.372;2023-01-28T08:59:30;9.60;;;5.57;;
14994;SDS011;7593;49.006;8.372;2023-01-28T09:01:56;6.93;;;5.53;;
14994;SDS011;7593;49.006;8.372;2023-01-28T09:04:23;5.57;;;5.03;;
14994;SDS011;7593;49.006;8.372;2023-01-28T09:06:52;5.17;;;4.67;;
14994;SDS011;7593;49.006;8.372;2023-01-28T09:09:19;6.73;;;4.70;;
14994;SDS011;7593;49.006;8.372;2023-01-28T09:11:49;5.23;;;4.67;;
14994;SDS011;7593;49.006;8.372;2023-01-28T09:14:18;5.60;;;5.00;;
14994;SDS011;7593;49.006;8.372;2023-01-28T09:16:44;5.83;;;4.97;;
14994;SDS011;7593;49.006;8.372;2023-01-28T09:19:13;6.80;;;5.53;;
14994;SDS011;7593;49.006;8.372;2023-01-28T09:21:40;5.00;;;4.50;;
14994;SDS011;7593;49.006;8.372;2023-01-28T09:24:09;5.97;;;5.10;;
14994;SDS011;7593;49.006;8.372;2023-01-28T09:26:38;7.80;;;4.77;;
14994;SDS011;7593;49.006;8.372;2023-01-28T09:29:17;6.37;;;4.40;;
14994;SDS011;7593;49.006;8.372;2023-01-28T09:31:45;7.13;;;4.90;;
14994;SDS011;7593;49.006;8.372;2023-01-28T09:34:12;5.07;;;4.57;;
14994;SDS011;7593;49.006;8.372;2023-01-28T09:36:39;4.90;;;4.40;;
14994;SDS011;7593;49.006;8.372;2023-01-28T09:39:06;5.63;;;4.90;;
14994;SDS011;7593;49.006;8.372;2023-01-28T09:41:35;5.63;;;4.83;;
14994;SDS011;7593;49.006;8.372;2023-01-28T09:44:29;6.17;;;5.20;;
14994;SDS011;7593;49.006;8.372;2023-01-28T09:47:11;5.33;;;4.70;;
14994;SDS011;7593;49.006;8.372;2023-01-28T09:49:46;5.17;;;4.60;;
14994;SDS011;7593;49.006;8.372;2023-01-28T09:52:17;6.20;;;4.57;;
14994;SDS011;7593;49.006;8.372;2023-01-28T09:54:51;5.77;;;5.07;;
14994;SDS011;7593;49.006;8.372;2023-01-28T09:57:24;7.17;;;4.93;;
14994;SDS011;7593;49.006;8.372;2023-01-28T09:59:55;5.33;;;4.70;;
14994;SDS011;7593;49.006;8.372;2023-01-28T10:02:35;5.70;;;4.70;;
14994;SDS011;7593;49.006;8.372;2023-01-28T10:05:15;8.70;;;6.03;;
14994;SDS011;7593;49.006;8.372;2023-01-28T10:07:47;6.07;;;5.47;;
14994;SDS011;7593;49.006;8.372;2023-01-28T10:10:23;7.80;;;6.20;;
14994;SDS011;7593;49.006;8.372;2023-01-28T10:12:57;5.13;;;4.63;;
14994;SDS011;7593;49.006;8.372;2023-01-28T10:18:30;8.50;;;7.70;;
14994;SDS011;7593;49.006;8.372;2023-01-28T10:21:02;6.70;;;6.00;;
14994;SDS011;7593;49.006;8.372;2023-01-28T10:23:35;6.27;;;5.67;;
14994;SDS011;7593;49.006;8.372;2023-01-28T10:26:17;6.40;;;5.33;;
14994;SDS011;7593;49.006;8.372;2023-01-28T10:28:49;5.90;;;5.27;;
14994;SDS011;7593;49.006;8.372;2023-01-28T10:31:20;7.97;;;6.10;;
14994;SDS011;7593;49.006;8.372;2023-01-28T10:33:48;6.13;;;5.53;;
14994;SDS011;7593;49.006;8.372;2023-01-28T10:36:14;5.97;;;5.07;;
14994;SDS011;7593;49.006;8.372;2023-01-28T10:38:42;5.73;;;5.17;;
14994;SDS011;7593;49.006;8.372;2023-01-28T10:41:10;8.53;;;6.67;;
14994;SDS011;7593;49.006;8.372;2023-01-28T10:43:42;7.53;;;5.77;;
14994;SDS011;7593;49.006;8.372;2023-01-28T10:46:10;8.77;;;7.17;;
14994;SDS011;7593;49.006;8.372;2023-01-28T10:48:41;10.20;;;8.37;;
14994;SDS011;7593;49.006;8.372;2023-01-28T10:51:11;9.43;;;8.00;;
14994;SDS011;7593;49.006;8.372;2023-01-28T10:53:40;17.23;;;12.30;;
14994;SDS011;7593;49.006;8.372;2023-01-28T10:56:08;6.30;;;5.70;;
14994;SDS011;7593;49.006;8.372;2023-01-28T10:58:46;8.80;;;6.97;;
14994;SDS011;7593;49.006;8.372;2023-01-28T11:01:16;8.70;;;7.53;;
14994;SDS011;7593;49.006;8.372;2023-01-28T11:03:52;7.63;;;6.50;;
14994;SDS011;7593;49.006;8.372;2023-01-28T11:06:22;6.87;;;5.90;;
14994;SDS011;7593;49.006;8.372;2023-01-28T11:08:50;8.67;;;7.17;;
14994;SDS011;7593;49.006;8.372;2023-01-28T11:11:21;7.30;;;6.60;;
14994;SDS011;7593;49.006;8.372;2023-01-28T11:13:51;7.43;;;6.03;;
14994;SDS011;7593;49.006;8.372;2023-01-28T11:16:22;10.00;;;6.57;;
14994;SDS011;7593;49.006;8.372;2023-01-28T11:18:52;7.43;;;6.33;;
14994;SDS011;7593;49.006;8.372;2023-01-28T11:21:23;7.10;;;6.40;;
14994;SDS011;7593;49.006;8.372;2023-01-28T11:23:56;8.33;;;6.77;;
14994;SDS011;7593;49.006;8.372;2023-01-28T11:26:28;8.37;;;7.27;;
14994;SDS011;7593;49.006;8.372;2023-01-28T11:28:58;6.87;;;5.93;;
14994;SDS011;7593;49.006;8.372;2023-01-28T11:31:25;8.47;;;6.30;;
14994;SDS011;7593;49.006;8.372;2023-01-28T11:33:54;6.57;;;5.97;;
14994;SDS011;7593;49.006;8.372;2023-01-28T11:36:24;9.20;;;6.80;;
14994;SDS011;7593;49.006;8.372;2023-01-28T11:38:55;6.23;;;5.63;;
14994;SDS011;7593;49.006;8.372;2023-01-28T11:41:27;5.67;;;5.03;;
14994;SDS011;7593;49.006;8.372;2023-01-28T11:43:56;7.77;;;5.97;;
14994;SDS011;7593;49.006;8.372;2023-01-28T11:46:35;7.20;;;5.87;;
14994;SDS011;7593;49.006;8.372;2023-01-28T11:49:13;6.57;;;5.40;;
14994;SDS011;7593;49.006;8.372;2023-01-28T11:51:50;5.87;;;5.27;;
14994;SDS011;7593;49.006;8.372;2023-01-28T11:54:25;6.17;;;4.97;;
14994;SDS011;7593;49.006;8.372;2023-01-28T11:57:08;5.43;;;4.93;;
14994;SDS011;7593;49.006;8.372;2023-01-28T11:59:52;5.00;;;4.50;;
14994;SDS011;7593;49.006;8.372;2023-01-28T12:02:29;6.13;;;4.80;;
14994;SDS011;7593;49.006;8.372;2023-01-28T12:05:28;5.00;;;4.03;;
14994;SDS011;7593;49.006;8.372;2023-01-28T12:08:14;4.57;;;3.97;;
14994;SDS011;7593;49.006;8.372;2023-01-28T12:10:51;4.60;;;4.20;;
14994;SDS011;7593;49.006;8.372;2023-01-28T12:13:35;4.93;;;3.57;;
14994;SDS011;7593;49.006;8.372;2023-01-28T12:16:17;4.57;;;4.17;;
14994;SDS011;7593;49.006;8.372;2023-01-28T12:19:02;9.27;;;6.90;;
14994;SDS011;7593;49.006;8.372;2023-01-28T12:21:48;6.13;;;5.10;;
14994;SDS011;7593;49.006;8.372;2023-01-28T12:24:31;8.53;;;6.90;;
14994;SDS011;7593;49.006;8.372;2023-01-28T12:27:09;5.73;;;4.83;;
14994;SDS011;7593;49.006;8.372;2023-01-28T12:29:50;3.80;;;3.40;;
14994;SDS011;7593;49.006;8.372;2023-01-28T12:32:27;5.63;;;4.07;;
14994;SDS011;7593;49.006;8.372;2023-01-28T12:35:18;5.10;;;4.10;;
14994;SDS011;7593;49.006;8.372;2023-01-28T12:38:02;5.47;;;4.50;;
14994;SDS011;7593;49.006;8.372;2023-01-28T12:40:39;4.43;;;3.67;;
14994;SDS011;7593;49.006;8.372;2023-01-28T12:43:26;5.00;;;3.67;;
14994;SDS011;7593;49.006;8.372;2023-01-28T12:46:17;4.30;;;3.50;;
14994;SDS011;7593;49.006;8.372;2023-01-28T12:48:56;6.57;;;3.37;;
14994;SDS011;7593;49.006;8.372;2023-01-28T12:51:26;5.13;;;4.40;;
14994;SDS011;7593;49.006;8.372;2023-01-28T12:53:57;5.53;;;4.10;;
14994;SDS011;7593;49.006;8.372;2023-01-28T12:56:27;6.33;;;3.80;;
14994;SDS011;7593;49.006;8.372;2023-01-28T12:58:57;4.83;;;4.40;;
14994;SDS011;7593;49.006;8.372;2023-01-28T13:01:28;7.20;;;4.20;;
14994;SDS011;7593;49.006;8.372;2023-01-28T13:04:00;5.00;;;3.60;;
14994;SDS011;7593;49.006;8.372;2023-01-28T13:06:32;4.93;;;3.60;;
14994;SDS011;7593;49.006;8.372;2023-01-28T13:09:10;6.23;;;3.83;;
14994;SDS011;7593;49.006;8.372;2023-01-28T13:11:40;5.50;;;3.20;;
14994;SDS011;7593;49.006;8.372;2023-01-28T13:14:08;4.80;;;3.70;;
14994;SDS011;7593;49.006;8.372;2023-01-28T13:16:37;4.70;;;3.40;;
14994;SDS011;7593;49.006;8.372;2023-01-28T13:19:05;3.87;;;3.43;;
14994;SDS011;7593;49.006;8.372;2023-01-28T13:21:35;3.60;;;3.30;;
14994;SDS011;7593;49.006;8.372;2023-01-28T13:24:04;10.00;;;4.93;;
14994;SDS011;7593;49.006;8.372;2023-01-28T13:26:45;3.63;;;3.30;;
14994;SDS011;7593;49.006;8.372;2023-01-28T13:29:18;3.27;;;2.90;;
14994;SDS011;7593;49.006;8.372;2023-01-28T13:31:47;3.90;;;3.50;;
14994;SDS011;7593;49.006;8.372;2023-01-28T13:34:25;5.37;;;4.27;;
14994;SDS011;7593;49.006;8.372;2023-01-28T13:36:57;4.60;;;3.30;;
14994;SDS011;7593;49.006;8.372;2023-01-28T13:39:26;6.27;;;3.50;;
14994;SDS011;7593;49.006;8.372;2023-01-28T13:42:07;5.90;;;3.43;;
14994;SDS011;7593;49.006;8.372;2023-01-28T13:44:36;4.47;;;3.53;;
14994;SDS011;7593;49.006;8.372;2023-01-28T13:47:13;5.80;;;3.30;;
14994;SDS011;7593;49.006;8.372;2023-01-28T13:49:46;3.60;;;3.07;;
14994;SDS011;7593;49.006;8.372;2023-01-28T13:52:15;9.27;;;3.50;;
14994;SDS011;7593;49.006;8.372;2023-01-28T13:54:50;4.37;;;3.97;;
14994;SDS011;7593;49.006;8.372;2023-01-28T14:00:47;5.73;;;3.40;;
14994;SDS011;7593;49.006;8.372;2023-01-28T14:03:43;4.80;;;3.23;;
14994;SDS011;7593;49.006;8.372;2023-01-28T14:06:42;4.93;;;3.23;;
14994;SDS011;7593;49.006;8.372;2023-01-28T14:09:37;8.17;;;3.50;;
14994;SDS011;7593;49.006;8.372;2023-01-28T14:12:35;6.73;;;3.10;;
14994;SDS011;7593;49.006;8.372;2023-01-28T14:15:21;3.93;;;3.10;;
14994;SDS011;7593;49.006;8.372;2023-01-28T14:18:21;3.67;;;3.00;;
14994;SDS011;7593;49.006;8.372;2023-01-28T14:20:52;4.33;;;3.07;;
14994;SDS011;7593;49.006;8.372;2023-01-28T14:23:21;3.07;;;2.73;;
14994;SDS011;7593;49.006;8.372;2023-01-28T14:28:40;3.13;;;2.83;;
14994;SDS011;7593;49.006;8.372;2023-01-28T14:31:16;3.60;;;2.77;;
14994;SDS011;7593;49.006;8.372;2023-01-28T14:33:49;5.03;;;3.00;;
14994;SDS011;7593;49.006;8.372;2023-01-28T14:36:17;4.57;;;2.60;;
14994;SDS011;7593;49.006;8.372;2023-01-28T14:38:43;12.27;;;5.13;;
14994;SDS011;7593;49.006;8.372;2023-01-28T14:41:16;6.43;;;2.90;;
14994;SDS011;7593;49.006;8.372;2023-01-28T14:43:48;14.00;;;8.67;;
14994;SDS011;7593;49.006;8.372;2023-01-28T14:46:21;14.30;;;10.30;;
14994;SDS011;7593;49.006;8.372;2023-01-28T14:49:00;10.97;;;8.03;;
14994;SDS011;7593;49.006;8.372;2023-01-28T14:51:49;6.90;;;5.33;;
14994;SDS011;7593;49.006;8.372;2023-01-28T14:57:29;4.83;;;3.20;;
14994;SDS011;7593;49.006;8.372;2023-01-28T15:00:18;5.43;;;4.47;;
14994;SDS011;7593;49.006;8.372;2023-01-28T15:02:48;7.20;;;4.37;;
14994;SDS011;7593;49.006;8.372;2023-01-28T15:05:16;5.13;;;3.90;;
14994;SDS011;7593;49.006;8.372;2023-01-28T15:07:45;4.77;;;4.17;;
14994;SDS011;7593;49.006;8.372;2023-01-28T15:10:14;6.90;;;4.57;;
14994;SDS011;7593;49.006;8.372;2023-01-28T15:12:44;5.97;;;4.87;;
14994;SDS011;7593;49.006;8.372;2023-01-28T15:15:17;6.37;;;4.03;;
14994;SDS011;7593;49.006;8.372;2023-01-28T15:17:52;10.23;;;5.00;;
14994;SDS011;7593;49.006;8.372;2023-01-28T15:20:20;5.90;;;4.37;;
14994;SDS011;7593;49.006;8.372;2023-01-28T15:22:49;15.07;;;9.57;;
14994;SDS011;7593;49.006;8.372;2023-01-28T15:25:18;14.27;;;9.60;;
14994;SDS011;7593;49.006;8.372;2023-01-28T15:27:46;8.20;;;5.17;;
14994;SDS011;7593;49.006;8.372;2023-01-28T15:30:22;6.77;;;4.93;;
14994;SDS011;7593;49.006;8.372;2023-01-28T15:32:57;7.87;;;4.60;;
14994;SDS011;7593;49.006;8.372;2023-01-28T15:35:25;5.93;;;4.60;;
14994;SDS011;7593;49.006;8.372;2023-01-28T15:37:52;5.00;;;4.50;;